Aviation Digital Data Service (ADDS)

Output produced by METARs form (0157 UTC 08 February 2016)
found at http://aviationweather.gov/adds/metars/
 
KSLK 072323Z 0800/0824 09004KT P6SM BKN110 
     FM081100 08004KT P6SM BKN090 
     FM082000 07005KT P6SM OVC050